sensor_id;sensor_type;location;lat;lon;timestamp;temperature;humidity
59961;DHT22;55902;-37.980;-63.602;2022-12-07T00:01:42;28.30;40.00
59961;DHT22;55902;-37.980;-63.602;2022-12-07T00:04:15;28.20;40.50
59961;DHT22;55902;-37.980;-63.602;2022-12-07T00:06:44;28.10;40.20
59961;DHT22;55902;-37.980;-63.602;2022-12-07T00:09:14;28.00;40.60
59961;DHT22;55902;-37.980;-63.602;2022-12-07T00:11:41;28.00;39.90
59961;DHT22;55902;-37.980;-63.602;2022-12-07T00:14:12;28.00;39.80
59961;DHT22;55902;-37.980;-63.602;2022-12-07T00:16:39;27.80;40.70
59961;DHT22;55902;-37.980;-63.602;2022-12-07T00:19:06;27.80;40.40
59961;DHT22;55902;-37.980;-63.602;2022-12-07T00:21:36;27.70;40.90
59961;DHT22;55902;-37.980;-63.602;2022-12-07T00:24:04;27.60;41.20
59961;DHT22;55902;-37.980;-63.602;2022-12-07T00:26:34;27.50;42.50
59961;DHT22;55902;-37.980;-63.602;2022-12-07T00:29:05;27.40;41.90
59961;DHT22;55902;-37.980;-63.602;2022-12-07T00:31:34;27.30;41.50
59961;DHT22;55902;-37.980;-63.602;2022-12-07T00:34:13;27.30;41.30
59961;DHT22;55902;-37.980;-63.602;2022-12-07T00:36:40;27.20;42.40
59961;DHT22;55902;-37.980;-63.602;2022-12-07T00:39:07;27.10;44.20
59961;DHT22;55902;-37.980;-63.602;2022-12-07T00:41:35;27.00;44.50
59961;DHT22;55902;-37.980;-63.602;2022-12-07T00:44:02;26.90;45.10
59961;DHT22;55902;-37.980;-63.602;2022-12-07T00:46:29;26.80;45.10
59961;DHT22;55902;-37.980;-63.602;2022-12-07T00:48:59;26.70;46.00
59961;DHT22;55902;-37.980;-63.602;2022-12-07T00:51:27;26.60;47.50
59961;DHT22;55902;-37.980;-63.602;2022-12-07T00:53:54;26.50;48.40
59961;DHT22;55902;-37.980;-63.602;2022-12-07T00:56:26;26.50;47.60
59961;DHT22;55902;-37.980;-63.602;2022-12-07T00:58:59;26.30;47.40
59961;DHT22;55902;-37.980;-63.602;2022-12-07T01:01:28;26.20;48.20
59961;DHT22;55902;-37.980;-63.602;2022-12-07T01:03:56;26.00;49.50
59961;DHT22;55902;-37.980;-63.602;2022-12-07T01:06:24;25.90;50.00
59961;DHT22;55902;-37.980;-63.602;2022-12-07T01:08:51;25.70;50.00
59961;DHT22;55902;-37.980;-63.602;2022-12-07T01:11:38;25.70;50.30
59961;DHT22;55902;-37.980;-63.602;2022-12-07T01:14:05;25.40;52.30
59961;DHT22;55902;-37.980;-63.602;2022-12-07T01:16:33;25.40;51.60
59961;DHT22;55902;-37.980;-63.602;2022-12-07T01:19:01;25.20;51.50
59961;DHT22;55902;-37.980;-63.602;2022-12-07T01:21:32;25.10;53.20
59961;DHT22;55902;-37.980;-63.602;2022-12-07T01:24:09;25.00;54.10
59961;DHT22;55902;-37.980;-63.602;2022-12-07T01:26:36;24.90;53.10
59961;DHT22;55902;-37.980;-63.602;2022-12-07T01:29:06;24.80;52.70
59961;DHT22;55902;-37.980;-63.602;2022-12-07T01:31:33;24.70;55.30
59961;DHT22;55902;-37.980;-63.602;2022-12-07T01:34:00;24.60;55.00
59961;DHT22;55902;-37.980;-63.602;2022-12-07T01:36:32;24.50;54.00
59961;DHT22;55902;-37.980;-63.602;2022-12-07T01:39:11;24.40;54.90
59961;DHT22;55902;-37.980;-63.602;2022-12-07T01:41:40;24.30;54.30
59961;DHT22;55902;-37.980;-63.602;2022-12-07T01:46:47;24.20;53.50
59961;DHT22;55902;-37.980;-63.602;2022-12-07T01:49:41;24.20;53.20
59961;DHT22;55902;-37.980;-63.602;2022-12-07T01:52:31;24.10;54.80
59961;DHT22;55902;-37.980;-63.602;2022-12-07T01:55:04;24.10;54.10
59961;DHT22;55902;-37.980;-63.602;2022-12-07T01:57:34;24.00;54.90
59961;DHT22;55902;-37.980;-63.602;2022-12-07T02:00:06;24.00;55.20
59961;DHT22;55902;-37.980;-63.602;2022-12-07T02:05:13;24.00;54.20
59961;DHT22;55902;-37.980;-63.602;2022-12-07T02:07:40;24.00;54.60
59961;DHT22;55902;-37.980;-63.602;2022-12-07T02:10:19;23.90;54.80
59961;DHT22;55902;-37.980;-63.602;2022-12-07T02:12:50;23.80;54.30
59961;DHT22;55902;-37.980;-63.602;2022-12-07T02:15:21;23.80;56.30
59961;DHT22;55902;-37.980;-63.602;2022-12-07T02:20:28;23.70;56.00
59961;DHT22;55902;-37.980;-63.602;2022-12-07T02:26:06;23.70;55.80
59961;DHT22;55902;-37.980;-63.602;2022-12-07T02:31:26;23.60;56.90
59961;DHT22;55902;-37.980;-63.602;2022-12-07T02:34:10;23.60;57.10
59961;DHT22;55902;-37.980;-63.602;2022-12-07T02:36:43;23.70;55.40
59961;DHT22;55902;-37.980;-63.602;2022-12-07T02:39:17;23.70;56.20
59961;DHT22;55902;-37.980;-63.602;2022-12-07T02:41:52;23.80;56.00
59961;DHT22;55902;-37.980;-63.602;2022-12-07T02:44:24;23.80;55.40
59961;DHT22;55902;-37.980;-63.602;2022-12-07T02:47:01;23.80;55.10
59961;DHT22;55902;-37.980;-63.602;2022-12-07T02:49:30;23.90;54.80
59961;DHT22;55902;-37.980;-63.602;2022-12-07T03:10:11;23.60;55.50
59961;DHT22;55902;-37.980;-63.602;2022-12-07T03:18:53;23.30;57.40
59961;DHT22;55902;-37.980;-63.602;2022-12-07T03:21:25;23.10;58.50
59961;DHT22;55902;-37.980;-63.602;2022-12-07T03:23:56;23.10;57.70
59961;DHT22;55902;-37.980;-63.602;2022-12-07T03:42:40;22.60;59.10
59961;DHT22;55902;-37.980;-63.602;2022-12-07T03:45:07;22.50;60.00
59961;DHT22;55902;-37.980;-63.602;2022-12-07T03:47:56;22.40;59.80
59961;DHT22;55902;-37.980;-63.602;2022-12-07T04:00:05;22.10;61.40
59961;DHT22;55902;-37.980;-63.602;2022-12-07T04:02:33;22.00;60.40
59961;DHT22;55902;-37.980;-63.602;2022-12-07T04:05:01;22.00;59.80
59961;DHT22;55902;-37.980;-63.602;2022-12-07T04:07:28;22.00;60.00
59961;DHT22;55902;-37.980;-63.602;2022-12-07T04:16:59;21.80;61.50
59961;DHT22;55902;-37.980;-63.602;2022-12-07T04:19:28;21.70;62.40
59961;DHT22;55902;-37.980;-63.602;2022-12-07T04:25:38;21.50;63.10
59961;DHT22;55902;-37.980;-63.602;2022-12-07T04:28:05;21.40;63.30
59961;DHT22;55902;-37.980;-63.602;2022-12-07T04:30:32;21.30;64.00
59961;DHT22;55902;-37.980;-63.602;2022-12-07T04:33:00;21.20;65.20
59961;DHT22;55902;-37.980;-63.602;2022-12-07T04:35:27;21.20;64.00
59961;DHT22;55902;-37.980;-63.602;2022-12-07T04:37:55;21.00;63.90
59961;DHT22;55902;-37.980;-63.602;2022-12-07T04:40:22;21.00;64.60
59961;DHT22;55902;-37.980;-63.602;2022-12-07T04:42:49;20.90;65.20
59961;DHT22;55902;-37.980;-63.602;2022-12-07T04:45:15;20.80;66.40
59961;DHT22;55902;-37.980;-63.602;2022-12-07T04:47:42;20.80;66.70
59961;DHT22;55902;-37.980;-63.602;2022-12-07T04:50:10;20.70;67.00
59961;DHT22;55902;-37.980;-63.602;2022-12-07T04:52:37;20.70;65.60
59961;DHT22;55902;-37.980;-63.602;2022-12-07T04:55:04;20.60;67.10
59961;DHT22;55902;-37.980;-63.602;2022-12-07T04:57:31;20.60;69.60
59961;DHT22;55902;-37.980;-63.602;2022-12-07T04:59:58;20.60;70.00
59961;DHT22;55902;-37.980;-63.602;2022-12-07T05:02:25;20.50;68.20
59961;DHT22;55902;-37.980;-63.602;2022-12-07T05:04:52;20.50;68.00
59961;DHT22;55902;-37.980;-63.602;2022-12-07T05:07:19;20.60;67.20
59961;DHT22;55902;-37.980;-63.602;2022-12-07T05:09:46;20.50;68.40
59961;DHT22;55902;-37.980;-63.602;2022-12-07T05:12:13;20.50;69.30
59961;DHT22;55902;-37.980;-63.602;2022-12-07T05:14:40;20.40;69.60
59961;DHT22;55902;-37.980;-63.602;2022-12-07T05:17:06;20.30;68.40
59961;DHT22;55902;-37.980;-63.602;2022-12-07T05:19:33;20.20;68.80
59961;DHT22;55902;-37.980;-63.602;2022-12-07T05:22:00;20.20;67.60
59961;DHT22;55902;-37.980;-63.602;2022-12-07T05:24:27;20.20;69.10
59961;DHT22;55902;-37.980;-63.602;2022-12-07T05:26:54;20.30;66.40
59961;DHT22;55902;-37.980;-63.602;2022-12-07T05:29:21;20.20;69.40
59961;DHT22;55902;-37.980;-63.602;2022-12-07T05:31:48;20.20;69.30
59961;DHT22;55902;-37.980;-63.602;2022-12-07T05:34:15;20.10;69.50
59961;DHT22;55902;-37.980;-63.602;2022-12-07T05:36:42;20.00;68.70
59961;DHT22;55902;-37.980;-63.602;2022-12-07T05:39:09;20.00;69.40
59961;DHT22;55902;-37.980;-63.602;2022-12-07T05:41:36;20.00;69.10
59961;DHT22;55902;-37.980;-63.602;2022-12-07T05:44:21;19.90;70.20
59961;DHT22;55902;-37.980;-63.602;2022-12-07T05:46:48;19.90;69.30
59961;DHT22;55902;-37.980;-63.602;2022-12-07T05:49:15;19.80;68.90
59961;DHT22;55902;-37.980;-63.602;2022-12-07T05:51:42;19.80;69.70
59961;DHT22;55902;-37.980;-63.602;2022-12-07T05:54:09;19.80;70.60
59961;DHT22;55902;-37.980;-63.602;2022-12-07T05:56:36;19.80;70.80
59961;DHT22;55902;-37.980;-63.602;2022-12-07T05:59:03;19.80;69.90
59961;DHT22;55902;-37.980;-63.602;2022-12-07T06:01:52;19.80;69.60
59961;DHT22;55902;-37.980;-63.602;2022-12-07T06:04:21;19.70;70.40
59961;DHT22;55902;-37.980;-63.602;2022-12-07T06:06:48;19.60;71.30
59961;DHT22;55902;-37.980;-63.602;2022-12-07T06:09:15;19.60;71.20
59961;DHT22;55902;-37.980;-63.602;2022-12-07T06:11:42;19.60;72.10
59961;DHT22;55902;-37.980;-63.602;2022-12-07T06:14:27;19.50;72.10
59961;DHT22;55902;-37.980;-63.602;2022-12-07T06:16:54;19.50;72.00
59961;DHT22;55902;-37.980;-63.602;2022-12-07T06:19:21;19.50;72.60
59961;DHT22;55902;-37.980;-63.602;2022-12-07T06:21:48;19.50;70.80
59961;DHT22;55902;-37.980;-63.602;2022-12-07T06:24:16;19.40;73.20
59961;DHT22;55902;-37.980;-63.602;2022-12-07T06:26:44;19.30;72.60
59961;DHT22;55902;-37.980;-63.602;2022-12-07T06:29:11;19.30;72.90
59961;DHT22;55902;-37.980;-63.602;2022-12-07T06:31:38;19.20;74.00
59961;DHT22;55902;-37.980;-63.602;2022-12-07T06:34:14;19.20;72.20
59961;DHT22;55902;-37.980;-63.602;2022-12-07T06:36:42;19.20;74.10
59961;DHT22;55902;-37.980;-63.602;2022-12-07T06:39:09;19.10;73.40
59961;DHT22;55902;-37.980;-63.602;2022-12-07T06:41:37;19.10;73.30
59961;DHT22;55902;-37.980;-63.602;2022-12-07T06:44:08;19.10;72.60
59961;DHT22;55902;-37.980;-63.602;2022-12-07T06:46:35;19.10;72.20
59961;DHT22;55902;-37.980;-63.602;2022-12-07T06:49:02;19.10;73.20
59961;DHT22;55902;-37.980;-63.602;2022-12-07T06:51:30;19.00;74.50
59961;DHT22;55902;-37.980;-63.602;2022-12-07T06:53:57;18.90;74.50
59961;DHT22;55902;-37.980;-63.602;2022-12-07T06:56:24;18.90;74.10
59961;DHT22;55902;-37.980;-63.602;2022-12-07T06:58:51;19.00;73.50
59961;DHT22;55902;-37.980;-63.602;2022-12-07T07:01:18;18.90;74.90
59961;DHT22;55902;-37.980;-63.602;2022-12-07T07:03:46;18.90;74.90
59961;DHT22;55902;-37.980;-63.602;2022-12-07T07:06:13;18.80;75.20
59961;DHT22;55902;-37.980;-63.602;2022-12-07T07:08:40;18.90;74.60
59961;DHT22;55902;-37.980;-63.602;2022-12-07T07:11:08;19.00;73.30
59961;DHT22;55902;-37.980;-63.602;2022-12-07T07:13:35;19.00;72.90
59961;DHT22;55902;-37.980;-63.602;2022-12-07T07:16:02;19.10;72.90
59961;DHT22;55902;-37.980;-63.602;2022-12-07T07:18:29;19.10;72.10
59961;DHT22;55902;-37.980;-63.602;2022-12-07T07:20:56;19.20;71.30
59961;DHT22;55902;-37.980;-63.602;2022-12-07T07:23:23;19.20;71.00
59961;DHT22;55902;-37.980;-63.602;2022-12-07T07:25:50;19.20;71.10
59961;DHT22;55902;-37.980;-63.602;2022-12-07T07:28:18;19.30;70.40
59961;DHT22;55902;-37.980;-63.602;2022-12-07T07:30:45;19.30;70.90
59961;DHT22;55902;-37.980;-63.602;2022-12-07T07:33:12;19.30;71.10
59961;DHT22;55902;-37.980;-63.602;2022-12-07T07:35:39;19.20;71.10
59961;DHT22;55902;-37.980;-63.602;2022-12-07T07:38:07;19.10;71.80
59961;DHT22;55902;-37.980;-63.602;2022-12-07T07:40:35;19.10;71.50
59961;DHT22;55902;-37.980;-63.602;2022-12-07T07:43:02;19.10;71.80
59961;DHT22;55902;-37.980;-63.602;2022-12-07T07:45:29;19.00;71.40
59961;DHT22;55902;-37.980;-63.602;2022-12-07T07:47:56;19.00;70.80
59961;DHT22;55902;-37.980;-63.602;2022-12-07T07:50:23;19.00;71.00
59961;DHT22;55902;-37.980;-63.602;2022-12-07T07:52:50;19.00;70.70
59961;DHT22;55902;-37.980;-63.602;2022-12-07T07:55:18;19.00;70.50
59961;DHT22;55902;-37.980;-63.602;2022-12-07T07:57:45;19.10;70.00
59961;DHT22;55902;-37.980;-63.602;2022-12-07T08:00:13;19.10;70.00
59961;DHT22;55902;-37.980;-63.602;2022-12-07T08:02:42;19.00;69.70
59961;DHT22;55902;-37.980;-63.602;2022-12-07T08:15:15;19.30;68.40
59961;DHT22;55902;-37.980;-63.602;2022-12-07T08:17:42;19.30;68.40
59961;DHT22;55902;-37.980;-63.602;2022-12-07T08:20:09;19.30;68.10
59961;DHT22;55902;-37.980;-63.602;2022-12-07T08:22:36;19.40;68.00
59961;DHT22;55902;-37.980;-63.602;2022-12-07T08:25:03;19.40;67.90
59961;DHT22;55902;-37.980;-63.602;2022-12-07T08:27:30;19.40;68.40
59961;DHT22;55902;-37.980;-63.602;2022-12-07T08:29:56;19.40;68.20
59961;DHT22;55902;-37.980;-63.602;2022-12-07T08:32:23;19.50;68.00
59961;DHT22;55902;-37.980;-63.602;2022-12-07T08:34:52;19.40;68.10
59961;DHT22;55902;-37.980;-63.602;2022-12-07T08:37:19;19.40;67.40
59961;DHT22;55902;-37.980;-63.602;2022-12-07T08:39:46;19.50;67.70
59961;DHT22;55902;-37.980;-63.602;2022-12-07T08:42:13;19.50;67.90
59961;DHT22;55902;-37.980;-63.602;2022-12-07T08:44:40;19.60;67.30
59961;DHT22;55902;-37.980;-63.602;2022-12-07T08:47:07;19.60;67.10
59961;DHT22;55902;-37.980;-63.602;2022-12-07T08:49:39;19.60;67.30
59961;DHT22;55902;-37.980;-63.602;2022-12-07T08:52:08;19.70;67.10
59961;DHT22;55902;-37.980;-63.602;2022-12-07T08:54:37;19.70;66.90
59961;DHT22;55902;-37.980;-63.602;2022-12-07T08:57:06;19.70;68.00
59961;DHT22;55902;-37.980;-63.602;2022-12-07T08:59:34;19.80;67.20
59961;DHT22;55902;-37.980;-63.602;2022-12-07T09:02:03;19.80;67.50
59961;DHT22;55902;-37.980;-63.602;2022-12-07T09:04:30;19.90;68.00
59961;DHT22;55902;-37.980;-63.602;2022-12-07T09:06:58;20.00;67.90
59961;DHT22;55902;-37.980;-63.602;2022-12-07T09:09:25;20.10;67.80
59961;DHT22;55902;-37.980;-63.602;2022-12-07T09:11:52;20.10;67.90
59961;DHT22;55902;-37.980;-63.602;2022-12-07T09:14:19;20.20;67.70
59961;DHT22;55902;-37.980;-63.602;2022-12-07T09:16:46;20.40;66.90
59961;DHT22;55902;-37.980;-63.602;2022-12-07T09:19:13;20.50;66.80
59961;DHT22;55902;-37.980;-63.602;2022-12-07T09:21:40;20.70;66.40
59961;DHT22;55902;-37.980;-63.602;2022-12-07T09:24:07;20.80;66.40
59961;DHT22;55902;-37.980;-63.602;2022-12-07T09:26:35;20.80;66.40
59961;DHT22;55902;-37.980;-63.602;2022-12-07T09:29:03;20.70;66.80
59961;DHT22;55902;-37.980;-63.602;2022-12-07T09:31:30;20.80;67.00
59961;DHT22;55902;-37.980;-63.602;2022-12-07T09:34:03;20.80;67.10
59961;DHT22;55902;-37.980;-63.602;2022-12-07T09:36:31;20.80;67.00
59961;DHT22;55902;-37.980;-63.602;2022-12-07T09:38:58;20.90;66.80
59961;DHT22;55902;-37.980;-63.602;2022-12-07T09:41:26;20.90;67.50
59961;DHT22;55902;-37.980;-63.602;2022-12-07T09:43:58;21.00;67.10
59961;DHT22;55902;-37.980;-63.602;2022-12-07T09:46:38;21.10;66.60
59961;DHT22;55902;-37.980;-63.602;2022-12-07T09:49:17;21.10;67.30
59961;DHT22;55902;-37.980;-63.602;2022-12-07T09:51:45;21.20;66.60
59961;DHT22;55902;-37.980;-63.602;2022-12-07T09:54:14;21.30;67.40
59961;DHT22;55902;-37.980;-63.602;2022-12-07T09:56:43;21.30;66.70
59961;DHT22;55902;-37.980;-63.602;2022-12-07T09:59:17;21.40;66.80
59961;DHT22;55902;-37.980;-63.602;2022-12-07T10:01:49;21.50;67.10
59961;DHT22;55902;-37.980;-63.602;2022-12-07T10:04:24;21.60;66.60
59961;DHT22;55902;-37.980;-63.602;2022-12-07T10:06:53;21.70;66.70
59961;DHT22;55902;-37.980;-63.602;2022-12-07T10:09:21;21.70;66.80
59961;DHT22;55902;-37.980;-63.602;2022-12-07T10:12:09;21.80;66.70
59961;DHT22;55902;-37.980;-63.602;2022-12-07T10:14:59;21.90;67.00
59961;DHT22;55902;-37.980;-63.602;2022-12-07T10:17:55;22.00;66.40
59961;DHT22;55902;-37.980;-63.602;2022-12-07T10:20:37;22.20;66.50
59961;DHT22;55902;-37.980;-63.602;2022-12-07T10:23:15;22.30;66.80
59961;DHT22;55902;-37.980;-63.602;2022-12-07T10:25:44;22.30;66.40
59961;DHT22;55902;-37.980;-63.602;2022-12-07T10:28:17;22.50;66.80
59961;DHT22;55902;-37.980;-63.602;2022-12-07T10:36:33;23.30;64.30
59961;DHT22;55902;-37.980;-63.602;2022-12-07T10:41:58;24.00;63.20
59961;DHT22;55902;-37.980;-63.602;2022-12-07T10:44:27;24.00;62.60
59961;DHT22;55902;-37.980;-63.602;2022-12-07T10:56:04;24.30;63.90
59961;DHT22;55902;-37.980;-63.602;2022-12-07T11:06:41;24.80;63.60
59961;DHT22;55902;-37.980;-63.602;2022-12-07T11:23:13;25.60;64.70
59961;DHT22;55902;-37.980;-63.602;2022-12-07T11:31:50;25.90;65.40
59961;DHT22;55902;-37.980;-63.602;2022-12-07T11:37:02;26.20;65.00
59961;DHT22;55902;-37.980;-63.602;2022-12-07T11:39:54;26.20;64.30
59961;DHT22;55902;-37.980;-63.602;2022-12-07T11:42:27;26.20;64.10
59961;DHT22;55902;-37.980;-63.602;2022-12-07T11:47:53;26.30;65.10
59961;DHT22;55902;-37.980;-63.602;2022-12-07T11:55:57;26.60;65.50
59961;DHT22;55902;-37.980;-63.602;2022-12-07T12:09:28;28.90;60.40
59961;DHT22;55902;-37.980;-63.602;2022-12-07T12:18:10;30.60;57.90
59961;DHT22;55902;-37.980;-63.602;2022-12-07T12:20:51;31.20;57.10
59961;DHT22;55902;-37.980;-63.602;2022-12-07T12:26:03;31.90;55.80
59961;DHT22;55902;-37.980;-63.602;2022-12-07T12:28:41;32.30;55.10
59961;DHT22;55902;-37.980;-63.602;2022-12-07T12:31:36;32.40;55.50
59961;DHT22;55902;-37.980;-63.602;2022-12-07T12:34:32;32.90;54.40
59961;DHT22;55902;-37.980;-63.602;2022-12-07T12:36:59;33.20;54.10
59961;DHT22;55902;-37.980;-63.602;2022-12-07T12:39:27;33.50;54.30
59961;DHT22;55902;-37.980;-63.602;2022-12-07T12:41:56;33.80;54.00
59961;DHT22;55902;-37.980;-63.602;2022-12-07T12:46:55;33.90;53.80
59961;DHT22;55902;-37.980;-63.602;2022-12-07T12:52:01;34.30;53.60
59961;DHT22;55902;-37.980;-63.602;2022-12-07T12:57:36;34.00;53.40
59961;DHT22;55902;-37.980;-63.602;2022-12-07T13:00:17;33.90;53.70
59961;DHT22;55902;-37.980;-63.602;2022-12-07T13:02:56;33.90;54.30
59961;DHT22;55902;-37.980;-63.602;2022-12-07T13:05:28;33.90;53.80
59961;DHT22;55902;-37.980;-63.602;2022-12-07T13:10:45;34.50;51.10
59961;DHT22;55902;-37.980;-63.602;2022-12-07T13:18:38;35.70;51.20
59961;DHT22;55902;-37.980;-63.602;2022-12-07T13:26:42;35.70;49.80
59961;DHT22;55902;-37.980;-63.602;2022-12-07T13:34:27;35.40;49.00
59961;DHT22;55902;-37.980;-63.602;2022-12-07T13:36:52;35.20;49.10
59961;DHT22;55902;-37.980;-63.602;2022-12-07T13:39:21;34.90;49.20
59961;DHT22;55902;-37.980;-63.602;2022-12-07T13:41:55;34.80;49.60
59961;DHT22;55902;-37.980;-63.602;2022-12-07T13:44:25;34.60;50.00
59961;DHT22;55902;-37.980;-63.602;2022-12-07T13:47:12;34.50;50.00
59961;DHT22;55902;-37.980;-63.602;2022-12-07T13:49:49;34.60;50.60
59961;DHT22;55902;-37.980;-63.602;2022-12-07T13:52:28;34.80;50.80
59961;DHT22;55902;-37.980;-63.602;2022-12-07T13:55:14;35.10;50.20
59961;DHT22;55902;-37.980;-63.602;2022-12-07T13:57:42;35.40;49.30
59961;DHT22;55902;-37.980;-63.602;2022-12-07T14:00:20;35.30;48.70
59961;DHT22;55902;-37.980;-63.602;2022-12-07T14:05:30;34.70;49.40
59961;DHT22;55902;-37.980;-63.602;2022-12-07T14:13:03;34.50;49.70
59961;DHT22;55902;-37.980;-63.602;2022-12-07T14:15:50;34.50;50.10
59961;DHT22;55902;-37.980;-63.602;2022-12-07T14:18:37;34.70;50.30
59961;DHT22;55902;-37.980;-63.602;2022-12-07T14:21:26;35.20;50.00
59961;DHT22;55902;-37.980;-63.602;2022-12-07T14:24:16;35.30;48.80
59961;DHT22;55902;-37.980;-63.602;2022-12-07T14:26:45;35.60;49.00
59961;DHT22;55902;-37.980;-63.602;2022-12-07T14:31:52;35.30;48.90
59961;DHT22;55902;-37.980;-63.602;2022-12-07T14:34:23;35.40;49.60
59961;DHT22;55902;-37.980;-63.602;2022-12-07T14:36:51;35.60;48.50
59961;DHT22;55902;-37.980;-63.602;2022-12-07T14:39:18;36.10;48.90
59961;DHT22;55902;-37.980;-63.602;2022-12-07T14:41:45;36.50;48.40
59961;DHT22;55902;-37.980;-63.602;2022-12-07T14:47:28;37.00;46.20
59961;DHT22;55902;-37.980;-63.602;2022-12-07T14:49:55;37.00;47.50
59961;DHT22;55902;-37.980;-63.602;2022-12-07T14:52:27;37.10;46.40
59961;DHT22;55902;-37.980;-63.602;2022-12-07T14:54:54;37.40;47.20
59961;DHT22;55902;-37.980;-63.602;2022-12-07T14:57:24;37.70;45.20
59961;DHT22;55902;-37.980;-63.602;2022-12-07T14:59:51;37.50;44.70
59961;DHT22;55902;-37.980;-63.602;2022-12-07T15:02:18;37.40;45.20
59961;DHT22;55902;-37.980;-63.602;2022-12-07T15:04:45;37.80;44.50
59961;DHT22;55902;-37.980;-63.602;2022-12-07T15:07:19;37.60;43.60
59961;DHT22;55902;-37.980;-63.602;2022-12-07T15:09:48;37.90;44.40
59961;DHT22;55902;-37.980;-63.602;2022-12-07T15:12:15;37.60;44.10
59961;DHT22;55902;-37.980;-63.602;2022-12-07T15:14:42;37.70;45.60
59961;DHT22;55902;-37.980;-63.602;2022-12-07T15:17:11;37.80;44.00
59961;DHT22;55902;-37.980;-63.602;2022-12-07T15:19:39;37.20;44.40
59961;DHT22;55902;-37.980;-63.602;2022-12-07T15:22:10;37.10;44.40
59961;DHT22;55902;-37.980;-63.602;2022-12-07T15:24:38;37.00;45.00
59961;DHT22;55902;-37.980;-63.602;2022-12-07T15:27:05;37.00;44.40
59961;DHT22;55902;-37.980;-63.602;2022-12-07T15:29:32;37.00;44.70
59961;DHT22;55902;-37.980;-63.602;2022-12-07T15:31:59;37.00;44.80
59961;DHT22;55902;-37.980;-63.602;2022-12-07T15:34:27;36.90;45.10
59961;DHT22;55902;-37.980;-63.602;2022-12-07T15:36:55;37.00;44.60
59961;DHT22;55902;-37.980;-63.602;2022-12-07T15:39:22;37.00;44.30
59961;DHT22;55902;-37.980;-63.602;2022-12-07T15:41:49;37.00;44.80
59961;DHT22;55902;-37.980;-63.602;2022-12-07T15:44:16;37.10;44.70
59961;DHT22;55902;-37.980;-63.602;2022-12-07T15:47:01;37.20;44.40
59961;DHT22;55902;-37.980;-63.602;2022-12-07T15:49:28;37.40;44.00
59961;DHT22;55902;-37.980;-63.602;2022-12-07T15:51:55;37.60;44.40
59961;DHT22;55902;-37.980;-63.602;2022-12-07T15:54:25;37.70;44.30
59961;DHT22;55902;-37.980;-63.602;2022-12-07T15:56:56;37.80;43.40
59961;DHT22;55902;-37.980;-63.602;2022-12-07T15:59:25;37.90;44.70
59961;DHT22;55902;-37.980;-63.602;2022-12-07T16:01:52;38.10;44.20
59961;DHT22;55902;-37.980;-63.602;2022-12-07T16:04:19;38.40;44.10
59961;DHT22;55902;-37.980;-63.602;2022-12-07T16:06:46;38.60;41.20
59961;DHT22;55902;-37.980;-63.602;2022-12-07T16:09:13;38.70;41.10
59961;DHT22;55902;-37.980;-63.602;2022-12-07T16:11:40;38.60;41.10
59961;DHT22;55902;-37.980;-63.602;2022-12-07T16:14:08;38.60;41.00
59961;DHT22;55902;-37.980;-63.602;2022-12-07T16:16:34;39.00;42.20
59961;DHT22;55902;-37.980;-63.602;2022-12-07T16:19:01;39.40;40.70
59961;DHT22;55902;-37.980;-63.602;2022-12-07T16:21:29;39.60;40.20
59961;DHT22;55902;-37.980;-63.602;2022-12-07T16:24:00;39.60;40.50
59961;DHT22;55902;-37.980;-63.602;2022-12-07T16:26:28;39.90;39.60
59961;DHT22;55902;-37.980;-63.602;2022-12-07T16:28:55;40.20;39.70
59961;DHT22;55902;-37.980;-63.602;2022-12-07T16:31:25;40.00;38.60
59961;DHT22;55902;-37.980;-63.602;2022-12-07T16:33:57;40.00;38.80
59961;DHT22;55902;-37.980;-63.602;2022-12-07T16:36:25;39.90;39.20
59961;DHT22;55902;-37.980;-63.602;2022-12-07T16:38:53;40.00;39.40
59961;DHT22;55902;-37.980;-63.602;2022-12-07T16:41:20;39.40;39.80
59961;DHT22;55902;-37.980;-63.602;2022-12-07T16:43:50;38.70;39.90
59961;DHT22;55902;-37.980;-63.602;2022-12-07T16:46:17;38.40;40.30
59961;DHT22;55902;-37.980;-63.602;2022-12-07T16:48:44;38.20;39.90
59961;DHT22;55902;-37.980;-63.602;2022-12-07T16:51:13;38.50;41.20
59961;DHT22;55902;-37.980;-63.602;2022-12-07T16:53:42;38.60;40.20
59961;DHT22;55902;-37.980;-63.602;2022-12-07T16:56:14;39.00;41.20
59961;DHT22;55902;-37.980;-63.602;2022-12-07T16:58:42;39.50;39.80
59961;DHT22;55902;-37.980;-63.602;2022-12-07T17:01:14;39.90;38.40
59961;DHT22;55902;-37.980;-63.602;2022-12-07T17:03:43;39.90;37.60
59961;DHT22;55902;-37.980;-63.602;2022-12-07T17:06:19;39.70;38.00
59961;DHT22;55902;-37.980;-63.602;2022-12-07T17:08:47;39.50;38.40
59961;DHT22;55902;-37.980;-63.602;2022-12-07T17:11:32;39.10;38.10
59961;DHT22;55902;-37.980;-63.602;2022-12-07T17:13:59;38.80;37.90
59961;DHT22;55902;-37.980;-63.602;2022-12-07T17:16:44;39.00;38.30
59961;DHT22;55902;-37.980;-63.602;2022-12-07T17:19:14;39.20;38.50
59961;DHT22;55902;-37.980;-63.602;2022-12-07T17:21:42;39.50;38.70
59961;DHT22;55902;-37.980;-63.602;2022-12-07T17:24:12;39.60;38.20
59961;DHT22;55902;-37.980;-63.602;2022-12-07T17:26:40;39.80;38.10
59961;DHT22;55902;-37.980;-63.602;2022-12-07T17:29:08;40.00;39.00
59961;DHT22;55902;-37.980;-63.602;2022-12-07T17:31:37;40.30;38.20
59961;DHT22;55902;-37.980;-63.602;2022-12-07T17:34:08;40.10;37.70
59961;DHT22;55902;-37.980;-63.602;2022-12-07T17:36:36;40.10;37.80
59961;DHT22;55902;-37.980;-63.602;2022-12-07T17:39:08;40.20;37.10
59961;DHT22;55902;-37.980;-63.602;2022-12-07T17:41:36;40.20;37.10
59961;DHT22;55902;-37.980;-63.602;2022-12-07T17:44:22;40.30;36.80
59961;DHT22;55902;-37.980;-63.602;2022-12-07T17:46:51;39.80;36.90
59961;DHT22;55902;-37.980;-63.602;2022-12-07T17:49:25;39.40;38.70
59961;DHT22;55902;-37.980;-63.602;2022-12-07T17:51:52;39.30;37.90
59961;DHT22;55902;-37.980;-63.602;2022-12-07T17:54:37;39.20;38.60
59961;DHT22;55902;-37.980;-63.602;2022-12-07T17:57:04;39.40;39.30
59961;DHT22;55902;-37.980;-63.602;2022-12-07T17:59:31;39.10;37.40
59961;DHT22;55902;-37.980;-63.602;2022-12-07T18:01:58;38.50;37.60
59961;DHT22;55902;-37.980;-63.602;2022-12-07T18:04:25;38.00;38.70
59961;DHT22;55902;-37.980;-63.602;2022-12-07T18:06:52;37.60;39.20
59961;DHT22;55902;-37.980;-63.602;2022-12-07T18:09:19;37.40;40.20
59961;DHT22;55902;-37.980;-63.602;2022-12-07T18:11:48;37.30;40.50
59961;DHT22;55902;-37.980;-63.602;2022-12-07T18:14:15;37.40;40.80
59961;DHT22;55902;-37.980;-63.602;2022-12-07T18:16:42;37.40;40.60
59961;DHT22;55902;-37.980;-63.602;2022-12-07T18:19:09;37.30;40.00
59961;DHT22;55902;-37.980;-63.602;2022-12-07T18:21:39;37.10;40.10
59961;DHT22;55902;-37.980;-63.602;2022-12-07T18:24:07;37.00;39.80
59961;DHT22;55902;-37.980;-63.602;2022-12-07T18:26:34;36.80;40.40
59961;DHT22;55902;-37.980;-63.602;2022-12-07T18:29:04;36.80;41.10